createdAt,value
2019-01-19T00:00:08.810Z,66.70
2019-01-19T00:02:43.656Z,64.80
2019-01-19T00:05:19.219Z,64.60
2019-01-19T00:07:59.846Z,64.90
2019-01-19T00:10:39.023Z,64.20
2019-01-19T00:13:14.655Z,64.60
2019-01-19T00:16:11.005Z,64.80
2019-01-19T00:18:52.427Z,64.00
2019-01-19T00:21:34.640Z,65.20
2019-01-19T00:24:23.886Z,65.60
2019-01-19T00:27:12.297Z,65.70
2019-01-19T00:30:04.385Z,65.80
2019-01-19T00:32:41.507Z,65.00
2019-01-19T00:35:50.363Z,65.50
2019-01-19T00:38:17.281Z,65.40
2019-01-19T00:41:02.896Z,65.30
2019-01-19T00:43:40.844Z,65.00
2019-01-19T00:46:27.499Z,65.10
2019-01-19T00:49:07.873Z,64.90
2019-01-19T00:52:00.570Z,65.00
2019-01-19T00:54:37.885Z,64.60
2019-01-19T00:57:14.520Z,65.00
2019-01-19T00:59:50.943Z,65.40
2019-01-19T01:02:33.533Z,65.00
2019-01-19T01:05:25.394Z,64.80
2019-01-19T01:08:18.472Z,64.60
2019-01-19T01:11:00.582Z,64.40
2019-01-19T01:13:37.090Z,64.60
2019-01-19T01:16:27.046Z,64.80
2019-01-19T01:19:13.631Z,64.70
2019-01-19T01:22:03.107Z,64.60
2019-01-19T01:24:47.518Z,64.80
2019-01-19T01:27:23.300Z,64.90
2019-01-19T01:30:21.167Z,65.90
2019-01-19T01:33:04.865Z,65.70
2019-01-19T01:35:40.297Z,65.80
2019-01-19T01:38:32.629Z,66.40
2019-01-19T01:41:32.361Z,66.40
2019-01-19T01:44:08.575Z,65.80
2019-01-19T01:46:52.471Z,66.50
2019-01-19T01:49:26.700Z,66.40
2019-01-19T01:52:27.102Z,66.00
2019-01-19T01:55:01.578Z,66.00
2019-01-19T01:57:31.142Z,65.70
2019-01-19T02:00:08.956Z,66.30
2019-01-19T02:02:46.661Z,65.80
2019-01-19T02:05:31.025Z,65.50
2019-01-19T02:08:29.726Z,65.60
2019-01-19T02:11:09.931Z,65.30
2019-01-19T02:13:47.430Z,65.70
2019-01-19T02:16:27.992Z,65.60
2019-01-19T02:19:05.407Z,65.00
2019-01-19T02:22:09.718Z,65.00
2019-01-19T02:24:47.510Z,64.60
2019-01-19T02:27:34.491Z,64.70
2019-01-19T02:30:23.860Z,64.90
2019-01-19T02:32:58.721Z,64.90
2019-01-19T02:35:39.447Z,65.10
2019-01-19T02:38:25.758Z,66.20
2019-01-19T02:41:27.646Z,65.70
2019-01-19T02:44:02.164Z,65.70
2019-01-19T02:46:51.676Z,65.90
2019-01-19T02:49:32.387Z,65.20
2019-01-19T02:52:22.175Z,65.20
2019-01-19T02:55:27.170Z,65.50
2019-01-19T02:58:01.639Z,65.30
2019-01-19T03:00:41.558Z,65.30
2019-01-19T03:03:25.902Z,65.80
2019-01-19T03:05:57.650Z,65.20
2019-01-19T03:08:29.620Z,64.60
2019-01-19T03:11:04.620Z,64.40
2019-01-19T03:13:54.394Z,64.00
2019-01-19T03:16:31.835Z,65.10
2019-01-19T03:19:23.154Z,66.40
2019-01-19T03:22:01.002Z,64.40
2019-01-19T03:24:49.543Z,64.60
2019-01-19T03:27:24.151Z,64.30
2019-01-19T03:30:28.785Z,65.00
2019-01-19T03:33:24.547Z,64.90
2019-01-19T03:36:05.672Z,64.90
2019-01-19T03:38:39.082Z,64.80
2019-01-19T03:41:22.633Z,65.80
2019-01-19T03:44:25.218Z,65.50
2019-01-19T03:47:14.818Z,64.90
2019-01-19T03:50:02.975Z,65.30
2019-01-19T03:52:37.597Z,65.40
2019-01-19T03:55:27.288Z,65.30
2019-01-19T03:57:59.228Z,64.80
2019-01-19T04:00:31.112Z,65.40
2019-01-19T04:03:14.597Z,65.30
2019-01-19T04:05:54.544Z,64.90
2019-01-19T04:08:46.268Z,66.50
2019-01-19T04:11:29.891Z,66.50
2019-01-19T04:14:07.708Z,66.60
2019-01-19T04:16:48.463Z,65.70
2019-01-19T04:19:35.523Z,66.10
2019-01-19T04:22:13.081Z,66.90
2019-01-19T04:24:53.930Z,66.20
2019-01-19T04:27:22.824Z,67.10
2019-01-19T04:29:51.595Z,68.50
2019-01-19T04:32:20.638Z,69.40
2019-01-19T04:34:49.459Z,69.70
2019-01-19T04:37:18.251Z,69.80
2019-01-19T04:39:47.195Z,70.70
2019-01-19T04:42:16.130Z,71.40
2019-01-19T04:44:44.917Z,70.60
2019-01-19T04:47:13.677Z,70.50
2019-01-19T04:49:42.496Z,69.20
2019-01-19T04:52:11.310Z,69.00
2019-01-19T04:54:40.129Z,69.00
2019-01-19T04:57:08.982Z,71.80
2019-01-19T04:59:37.819Z,70.80
2019-01-19T05:02:06.935Z,70.50
2019-01-19T05:04:35.960Z,68.90
2019-01-19T05:07:04.947Z,70.50
2019-01-19T05:09:36.680Z,69.50
2019-01-19T05:12:06.917Z,70.10
2019-01-19T05:14:35.891Z,71.10
2019-01-19T05:17:05.242Z,71.70
2019-01-19T05:19:35.779Z,71.40
2019-01-19T05:22:04.909Z,72.10
2019-01-19T05:24:33.732Z,71.80
2019-01-19T05:27:02.808Z,71.10
2019-01-19T05:29:32.036Z,71.90
2019-01-19T05:32:00.813Z,70.80
2019-01-19T05:34:29.712Z,71.00
2019-01-19T05:36:58.433Z,69.70
2019-01-19T05:39:27.387Z,68.70
2019-01-19T05:41:56.496Z,69.10
2019-01-19T05:44:25.272Z,69.20
2019-01-19T05:46:53.988Z,69.40
2019-01-19T05:49:23.090Z,68.70
2019-01-19T05:51:51.912Z,68.90
2019-01-19T05:54:20.700Z,68.40
2019-01-19T05:56:49.532Z,67.80
2019-01-19T05:59:18.390Z,68.70
2019-01-19T06:01:47.191Z,67.70
2019-01-19T06:04:16.312Z,66.20
2019-01-19T06:06:46.908Z,67.90
2019-01-19T06:09:15.559Z,68.20
2019-01-19T06:11:44.434Z,68.30
2019-01-19T06:14:13.295Z,67.50
2019-01-19T06:16:42.086Z,67.50
2019-01-19T06:19:11.632Z,66.70
2019-01-19T06:21:41.545Z,66.80
2019-01-19T06:24:10.430Z,67.50
2019-01-19T06:26:39.165Z,67.50
2019-01-19T06:29:07.957Z,67.40
2019-01-19T06:31:36.886Z,66.40
2019-01-19T06:34:05.677Z,67.10
2019-01-19T06:36:34.484Z,67.00
2019-01-19T06:39:04.773Z,66.20
2019-01-19T06:41:33.687Z,66.90
2019-01-19T06:44:04.675Z,66.30
2019-01-19T06:46:33.596Z,67.30
2019-01-19T06:49:02.421Z,66.20
2019-01-19T06:51:33.804Z,65.40
2019-01-19T06:54:07.258Z,66.00
2019-01-19T06:56:36.269Z,65.80
2019-01-19T06:59:05.469Z,65.50
2019-01-19T07:01:38.304Z,65.70
2019-01-19T07:04:13.066Z,65.60
2019-01-19T07:06:46.924Z,65.80
2019-01-19T07:09:18.861Z,65.70
2019-01-19T07:11:47.887Z,65.40
2019-01-19T07:14:16.903Z,65.40
2019-01-19T07:16:48.567Z,65.60
2019-01-19T07:19:17.399Z,65.60
2019-01-19T07:21:46.312Z,65.20
2019-01-19T07:24:15.256Z,65.30
2019-01-19T07:26:44.397Z,65.40
2019-01-19T07:29:14.831Z,65.10
2019-01-19T07:31:43.513Z,66.00
2019-01-19T07:34:16.857Z,64.80
2019-01-19T07:36:45.809Z,64.60
2019-01-19T07:39:14.843Z,64.00
2019-01-19T07:41:43.697Z,64.00
2019-01-19T07:44:13.479Z,64.00
2019-01-19T07:46:43.872Z,63.90
2019-01-19T07:49:14.704Z,64.90
2019-01-19T07:51:43.604Z,64.20
2019-01-19T07:54:12.395Z,63.70
2019-01-19T07:56:41.349Z,63.20
2019-01-19T07:59:10.770Z,64.40
2019-01-19T08:01:39.649Z,64.20
2019-01-19T08:04:09.749Z,62.10
2019-01-19T08:06:38.598Z,62.60
2019-01-19T08:09:08.099Z,62.70
2019-01-19T08:11:37.013Z,62.90
2019-01-19T08:14:06.123Z,62.60
2019-01-19T08:16:35.130Z,62.20
2019-01-19T08:19:05.625Z,62.30
2019-01-19T08:21:34.471Z,62.40
2019-01-19T08:24:03.758Z,62.40
2019-01-19T08:26:32.876Z,62.10
2019-01-19T08:29:02.371Z,62.70
2019-01-19T08:31:33.034Z,61.30
2019-01-19T08:34:05.822Z,61.30
2019-01-19T08:36:35.026Z,61.60
2019-01-19T08:39:05.519Z,61.50
2019-01-19T08:41:37.498Z,61.60
2019-01-19T08:44:11.147Z,61.00
2019-01-19T08:46:39.939Z,61.30
2019-01-19T08:49:13.313Z,61.90
2019-01-19T08:51:44.662Z,61.40
2019-01-19T08:54:13.654Z,61.20
2019-01-19T08:56:42.394Z,60.90
2019-01-19T08:59:11.433Z,60.80
2019-01-19T09:01:42.716Z,60.50
2019-01-19T09:04:11.478Z,60.40
2019-01-19T09:06:42.765Z,59.90
2019-01-19T09:09:11.601Z,59.40
2019-01-19T09:11:47.460Z,59.90
2019-01-19T09:14:16.517Z,60.50
2019-01-19T09:16:45.350Z,60.40
2019-01-19T09:19:15.775Z,62.10
2019-01-19T09:21:45.859Z,60.80
2019-01-19T09:24:18.248Z,62.60
2019-01-19T09:26:47.469Z,60.70
2019-01-19T09:29:16.246Z,59.70
2019-01-19T09:31:46.871Z,59.70
2019-01-19T09:34:17.134Z,60.00
2019-01-19T09:36:48.216Z,59.40
2019-01-19T09:39:17.965Z,59.30
2019-01-19T09:41:46.686Z,58.70
2019-01-19T09:44:18.738Z,59.10
2019-01-19T09:46:47.569Z,59.10
2019-01-19T09:49:21.055Z,59.20
2019-01-19T09:51:52.917Z,59.20
2019-01-19T09:54:21.651Z,59.40
2019-01-19T09:56:53.354Z,57.70
2019-01-19T09:59:22.278Z,58.70
2019-01-19T10:01:51.189Z,58.60
2019-01-19T10:04:19.999Z,57.50
2019-01-19T10:06:56.540Z,57.50
2019-01-19T10:09:28.014Z,57.50
2019-01-19T10:11:56.804Z,57.20
2019-01-19T10:14:27.967Z,56.60
2019-01-19T10:17:04.695Z,56.10
2019-01-19T10:19:34.816Z,56.00
2019-01-19T10:22:03.633Z,55.70
2019-01-19T10:24:34.873Z,55.60
2019-01-19T10:27:04.066Z,55.70
2019-01-19T10:29:32.821Z,55.00
2019-01-19T10:32:02.678Z,55.80
2019-01-19T10:34:32.191Z,55.20
2019-01-19T10:37:02.911Z,54.80
2019-01-19T10:39:31.755Z,54.80
2019-01-19T10:42:05.333Z,54.50
2019-01-19T10:44:36.002Z,54.40
2019-01-19T10:47:07.651Z,54.10
2019-01-19T10:49:36.477Z,53.10
2019-01-19T10:52:05.361Z,53.30
2019-01-19T10:54:34.548Z,52.80
2019-01-19T10:57:04.598Z,52.80
2019-01-19T10:59:33.561Z,52.90
2019-01-19T11:02:04.899Z,52.80
2019-01-19T11:04:36.745Z,53.00
2019-01-19T11:07:05.610Z,52.30
2019-01-19T11:09:34.731Z,52.00
2019-01-19T11:12:05.503Z,52.20
2019-01-19T11:14:34.267Z,52.30
2019-01-19T11:17:05.426Z,52.20
2019-01-19T11:19:36.798Z,51.90
2019-01-19T11:22:05.877Z,52.20
2019-01-19T11:24:34.727Z,52.60
2019-01-19T11:27:03.588Z,52.00
2019-01-19T11:29:34.475Z,52.00
2019-01-19T11:32:45.257Z,52.00
2019-01-19T11:35:14.646Z,52.10
2019-01-19T11:38:12.005Z,52.00
2019-01-19T11:40:39.140Z,50.50
2019-01-19T11:43:47.948Z,51.70
2019-01-19T11:46:16.810Z,51.50
2019-01-19T11:49:36.335Z,51.90
2019-01-19T11:52:08.601Z,51.30
2019-01-19T11:54:46.005Z,51.80
2019-01-19T11:57:17.842Z,51.80
2019-01-19T12:00:31.478Z,51.60
2019-01-19T12:03:04.537Z,51.30
2019-01-19T12:06:06.678Z,51.30
2019-01-19T12:08:38.050Z,51.10
2019-01-19T12:11:07.020Z,50.60
2019-01-19T12:14:29.691Z,50.50
2019-01-19T12:17:00.356Z,50.40
2019-01-19T12:20:02.299Z,50.30
2019-01-19T12:22:32.687Z,50.10
2019-01-19T12:25:04.011Z,50.70
2019-01-19T12:27:36.195Z,50.20
2019-01-19T12:30:12.203Z,50.20
2019-01-19T12:33:32.402Z,49.70
2019-01-19T12:36:05.391Z,49.20
2019-01-19T12:39:09.812Z,49.30
2019-01-19T12:41:38.885Z,49.20
2019-01-19T12:44:08.641Z,49.80
2019-01-19T12:47:18.923Z,49.00
2019-01-19T12:49:48.805Z,48.50
2019-01-19T12:52:18.001Z,49.10
2019-01-19T12:54:49.752Z,48.90
2019-01-19T12:57:19.524Z,48.60
2019-01-19T12:59:55.833Z,48.60
2019-01-19T13:02:31.749Z,48.40
2019-01-19T13:08:15.556Z,49.00
2019-01-19T13:10:53.313Z,49.30
2019-01-19T13:13:31.357Z,49.00
2019-01-19T13:16:16.639Z,48.70
2019-01-19T13:18:54.252Z,48.40
2019-01-19T13:22:22.295Z,48.40
2019-01-19T13:24:59.617Z,48.90
2019-01-19T13:31:22.597Z,48.40
2019-01-19T13:34:43.606Z,48.30
2019-01-19T13:37:35.899Z,48.20
2019-01-19T13:40:54.992Z,48.10
2019-01-19T13:43:32.883Z,47.50
2019-01-19T13:46:55.840Z,47.30
2019-01-19T13:50:00.474Z,47.50
2019-01-19T13:53:06.671Z,48.30
2019-01-19T13:55:59.782Z,48.30
2019-01-19T13:59:07.592Z,47.40
2019-01-19T14:02:00.606Z,47.70
2019-01-19T14:08:14.818Z,47.70
2019-01-19T14:10:48.624Z,48.30
2019-01-19T14:13:39.777Z,47.80
2019-01-19T14:16:17.855Z,47.20
2019-01-19T14:23:13.313Z,47.60
2019-01-19T14:26:00.051Z,47.40
2019-01-19T14:29:12.036Z,47.90
2019-01-19T14:32:03.396Z,48.00
2019-01-19T14:38:32.795Z,48.50
2019-01-19T14:45:13.987Z,48.80
2019-01-19T14:48:34.843Z,48.70
2019-01-19T14:51:15.158Z,48.70
2019-01-19T14:56:49.078Z,48.60
2019-01-19T15:02:40.299Z,48.70
2019-01-19T15:11:40.405Z,48.80
2019-01-19T15:14:21.183Z,50.10
2019-01-19T15:16:57.401Z,49.70
2019-01-19T15:20:01.579Z,48.10
2019-01-19T15:22:46.092Z,49.90
2019-01-19T15:25:24.903Z,50.10
2019-01-19T15:28:16.591Z,49.90
2019-01-19T15:31:19.811Z,49.60
2019-01-19T15:37:30.670Z,50.40
2019-01-19T15:40:39.032Z,51.40
2019-01-19T15:43:25.601Z,51.50
2019-01-19T15:48:52.521Z,51.80
2019-01-19T15:51:34.691Z,52.40
2019-01-19T15:54:26.300Z,52.60
2019-01-19T15:57:55.594Z,52.40
2019-01-19T16:00:45.419Z,52.80
2019-01-19T16:03:58.257Z,52.10
2019-01-19T16:06:48.225Z,53.20
2019-01-19T16:13:03.193Z,56.00
2019-01-19T16:16:29.322Z,56.00
2019-01-19T16:19:01.132Z,54.60
2019-01-19T16:22:30.139Z,54.80
2019-01-19T16:25:18.454Z,56.00
2019-01-19T16:28:26.193Z,56.50
2019-01-19T16:31:28.345Z,57.50
2019-01-19T16:34:17.712Z,57.10
2019-01-19T16:37:18.261Z,57.30
2019-01-19T16:40:35.295Z,57.60
2019-01-19T16:43:07.287Z,57.00
2019-01-19T16:45:41.811Z,57.20
2019-01-19T16:49:04.485Z,57.10
2019-01-19T16:51:51.120Z,57.50
2019-01-19T16:55:11.196Z,57.90
2019-01-19T16:57:48.945Z,57.90
2019-01-19T17:01:05.787Z,57.60
2019-01-19T17:03:46.541Z,57.60
2019-01-19T17:07:24.797Z,58.00
2019-01-19T17:09:56.603Z,58.20
2019-01-19T17:13:09.516Z,57.60
2019-01-19T17:16:11.063Z,57.50
2019-01-19T17:18:46.255Z,57.20
2019-01-19T17:25:48.656Z,57.10
2019-01-19T17:28:20.401Z,58.60
2019-01-19T17:31:43.050Z,58.80
2019-01-19T17:34:21.565Z,59.10
2019-01-19T17:37:46.947Z,58.40
2019-01-19T17:40:39.620Z,58.30
2019-01-19T17:43:14.436Z,57.90
2019-01-19T17:46:13.322Z,58.00
2019-01-19T17:49:22.791Z,58.00
2019-01-19T17:52:17.133Z,58.30
2019-01-19T17:55:48.754Z,58.60
2019-01-19T17:58:47.295Z,59.10
2019-01-19T18:01:26.199Z,59.20
2019-01-19T18:07:48.972Z,58.70
2019-01-19T18:17:11.495Z,58.80
2019-01-19T18:20:22.195Z,58.90
2019-01-19T18:23:31.920Z,62.20
2019-01-19T18:26:50.536Z,60.90
2019-01-19T18:29:49.066Z,60.10
2019-01-19T18:32:39.391Z,60.00
2019-01-19T18:35:28.853Z,58.60
2019-01-19T18:38:16.872Z,59.80
2019-01-19T18:41:24.689Z,59.30
2019-01-19T18:44:14.184Z,60.00
2019-01-19T18:47:00.770Z,58.90
2019-01-19T18:50:27.338Z,60.70
2019-01-19T18:53:19.270Z,59.90
2019-01-19T18:59:41.303Z,60.00
2019-01-19T19:03:05.272Z,61.30
2019-01-19T19:05:39.812Z,59.80
2019-01-19T19:08:37.750Z,59.40
2019-01-19T19:11:19.301Z,59.30
2019-01-19T19:14:36.639Z,59.40
2019-01-19T19:17:27.350Z,59.10
2019-01-19T19:20:42.164Z,59.40
2019-01-19T19:23:30.718Z,59.40
2019-01-19T19:26:48.454Z,59.10
2019-01-19T19:29:45.607Z,58.80
2019-01-19T19:33:15.248Z,58.90
2019-01-19T19:35:55.847Z,58.90
2019-01-19T19:38:27.564Z,58.60
2019-01-19T19:41:20.403Z,58.70
2019-01-19T19:44:43.248Z,58.60
2019-01-19T19:47:22.856Z,58.10
2019-01-19T19:50:33.507Z,59.00
2019-01-19T19:53:04.821Z,59.20
2019-01-19T19:55:34.871Z,59.20
2019-01-19T19:58:03.650Z,59.20
2019-01-19T20:00:34.273Z,58.90
2019-01-19T20:03:45.262Z,59.00
2019-01-19T20:06:19.925Z,59.30
2019-01-19T20:08:51.547Z,60.00
2019-01-19T20:11:29.296Z,59.60
2019-01-19T20:13:58.441Z,59.30
2019-01-19T20:17:12.905Z,59.10
2019-01-19T20:19:53.251Z,58.60
2019-01-19T20:23:09.547Z,58.80
2019-01-19T20:25:42.728Z,59.20
2019-01-19T20:29:11.370Z,59.00
2019-01-19T20:31:41.442Z,58.80
2019-01-19T20:34:49.749Z,59.30
2019-01-19T20:37:18.715Z,59.70
2019-01-19T20:40:24.591Z,60.00
2019-01-19T20:42:52.798Z,60.00
2019-01-19T20:45:45.514Z,61.10
2019-01-19T20:48:21.085Z,60.80
2019-01-19T20:50:52.226Z,60.50
2019-01-19T20:53:21.908Z,60.50
2019-01-19T20:55:54.487Z,60.70
2019-01-19T20:58:37.675Z,61.80
2019-01-19T21:01:06.578Z,60.60
2019-01-19T21:03:38.347Z,60.20
2019-01-19T21:06:55.434Z,60.40
2019-01-19T21:09:30.891Z,60.30
2019-01-19T21:14:54.482Z,60.50
2019-01-19T21:18:06.444Z,60.10
2019-01-19T21:20:39.654Z,60.00
2019-01-19T21:24:06.975Z,60.90
2019-01-19T21:26:39.397Z,60.80
2019-01-19T21:29:08.789Z,60.80
2019-01-19T21:31:40.766Z,61.00
2019-01-19T21:34:09.567Z,60.70
2019-01-19T21:36:56.219Z,61.40
2019-01-19T21:39:25.132Z,61.60
2019-01-19T21:41:58.242Z,62.10
2019-01-19T21:44:27.137Z,63.80
2019-01-19T21:47:23.021Z,62.10
2019-01-19T21:49:57.866Z,61.70
2019-01-19T21:52:30.501Z,61.70
2019-01-19T21:55:47.281Z,59.80
2019-01-19T21:58:17.728Z,61.90
2019-01-19T22:01:44.012Z,61.70
2019-01-19T22:04:15.970Z,61.90
2019-01-19T22:07:19.902Z,64.10
2019-01-19T22:09:55.040Z,62.70
2019-01-19T22:12:23.586Z,62.00
2019-01-19T22:14:54.106Z,63.10
2019-01-19T22:17:23.126Z,63.00
2019-01-19T22:20:39.920Z,62.40
2019-01-19T22:23:08.769Z,62.30
2019-01-19T22:26:32.420Z,62.10
2019-01-19T22:29:02.481Z,62.50
2019-01-19T22:32:09.702Z,62.30
2019-01-19T22:34:40.849Z,62.00
2019-01-19T22:37:36.712Z,62.60
2019-01-19T22:40:20.861Z,62.60
2019-01-19T22:45:23.378Z,62.80
2019-01-19T22:47:55.453Z,62.70
2019-01-19T22:51:12.562Z,63.50
2019-01-19T22:53:44.342Z,63.90
2019-01-19T22:56:13.219Z,62.90
2019-01-19T22:59:25.242Z,62.60
2019-01-19T23:01:54.061Z,62.10
2019-01-19T23:04:23.835Z,62.40
2019-01-19T23:06:55.965Z,63.10
2019-01-19T23:09:24.748Z,62.20
2019-01-19T23:12:23.415Z,63.20
2019-01-19T23:14:55.021Z,62.60
2019-01-19T23:17:24.788Z,62.00
2019-01-19T23:20:36.693Z,62.50
2019-01-19T23:23:05.520Z,62.90
2019-01-19T23:25:34.441Z,63.20
2019-01-19T23:28:10.425Z,63.20
2019-01-19T23:30:43.536Z,62.30
2019-01-19T23:33:51.312Z,61.50
2019-01-19T23:36:20.156Z,61.60
2019-01-19T23:38:48.900Z,61.90
2019-01-19T23:42:08.491Z,61.70
2019-01-19T23:44:37.228Z,61.80
2019-01-19T23:47:07.602Z,61.90
2019-01-19T23:49:43.798Z,61.80
2019-01-19T23:52:13.654Z,61.70
2019-01-19T23:57:35.812Z,61.30
